Latest Weather Observations for Oenpelli Airport

IDD60801

Issued at 11:05 am CST Thursday 23 October 2014 (issued every 30 minutes, with the page automatically refreshed every 10 minutes)

About weather observations | Map of weather stations | Latest weather observations for NT | Other Formats
Station Details ID: 014310 Name: OENPELLI AIRPORT Lat: -12.33 Lon: 133.01 Height: 7.5 m
Data from the previous 72 hours. | See also: Recent months for locations in Northern Territory
Date/Time
CST
Temp
°C
App
Temp
°C
Dew
Point
Rel
Hum
%
Delta-T
°C
Wind Press
QNH
hPa
Press
MSL
hPa
Rain
since 9 am
mm
Dir
 
Spd
km/h
Gust
km/h
Spd
kts
Gust
kts
23/11:00am 33.9 29.9 10.5 24 13.6 E 22 35 12 19 1013.4 1013.3 0.0
23/10:30am 33.1 29.1 10.4 25 13.1 E 22 32 12 17 1013.8 1013.7 0.0
23/10:00am 32.3 30.2 12.5 30 11.8 NE 15 26 8 14 1014.1 1014.0 0.0
23/09:30am 30.3 32.1 18.4 49 7.7 E 6 15 3 8 1014.4 1014.3 0.0
23/09:00am 29.4 32.0 20.0 57 6.2 ESE 6 9 3 5 1014.8 1014.7 0.0
23/08:30am 28.2 31.6 21.0 65 4.8 ESE 4 9 2 5 1014.9 1014.8 0.0
23/08:00am 27.3 30.3 21.3 69 4.0 NE 7 11 4 6 1014.8 1014.7 0.0
23/07:30am 25.6 28.7 21.1 76 3.0 NE 6 7 3 4 1014.5 1014.4 0.0
23/07:00am 23.8 27.4 19.7 78 2.6 CALM 0 0 0 0 1014.1 1014.0 0.0
23/06:30am 23.2 26.4 20.5 85 1.8 NNE 4 4 2 2 1013.8 1013.7 0.0
23/06:00am 23.0 26.2 20.5 86 1.6 WNW 4 4 2 2 1013.5 1013.4 0.0
23/05:30am 21.9 25.2 19.1 84 1.8 CALM 0 0 0 0 1013.2 1013.1 0.0
23/05:00am 23.1 26.8 19.9 82 2.1 CALM 0 0 0 0 1013.0 1012.9 0.0
23/04:30am 23.0 26.6 19.8 82 2.1 CALM 0 0 0 0 1012.8 1012.7 0.0
23/04:00am 22.6 25.7 19.4 82 2.0 WNW 2 4 1 2 1012.7 1012.6 0.0
23/03:30am 23.7 27.2 20.4 82 2.1 WNW 2 6 1 3 1012.7 1012.6 0.0
23/03:00am 22.6 25.4 17.9 75 2.9 WNW 0 2 0 1 1012.8 1012.7 0.0
23/02:30am 23.9 27.6 20.0 79 2.5 CALM 0 0 0 0 1012.8 1012.7 0.0
23/02:00am 24.9 28.2 20.8 78 2.7 NE 4 7 2 4 1013.0 1012.9 0.0
23/01:30am 25.1 28.4 20.8 77 2.8 NNE 4 6 2 3 1013.1 1013.0 0.0
23/01:00am 24.9 27.8 19.9 74 3.2 N 4 6 2 3 1013.6 1013.5 0.0
23/12:30am 25.9 29.0 20.2 71 3.7 N 4 7 2 4 1014.0 1013.9 0.0
23/12:00am 26.2 29.2 20.1 69 4.0 NE 4 6 2 3 1014.3 1014.2 0.0
 
Date/Time
CST
Temp
°C
App
Temp
°C
Dew
Point
Rel
Hum
%
Delta-T
°C
Wind Press
QNH
hPa
Press
MSL
hPa
Rain
since 9 am
mm
Dir
 
Spd
km/h
Gust
km/h
Spd
kts
Gust
kts
22/11:30pm 26.1 29.4 20.0 69 4.0 NE 2 6 1 3 1014.3 1014.2 0.0
22/11:00pm 26.3 28.8 19.9 68 4.2 NE 6 7 3 4 1014.3 1014.2 0.0
22/10:30pm 26.3 29.1 19.7 67 4.3 NNE 4 7 2 4 1014.1 1014.0 0.0
22/10:00pm 26.9 29.2 19.5 64 4.8 NNE 6 7 3 4 1013.8 1013.7 0.0
22/09:30pm 27.1 28.6 18.9 61 5.3 NNE 9 13 5 7 1013.5 1013.4 0.0
22/09:00pm 27.7 28.6 18.4 57 5.9 NNE 11 13 6 7 1013.1 1013.0 0.0
22/08:30pm 28.2 28.5 18.0 54 6.5 NNE 13 20 7 11 1012.7 1012.6 0.0
22/08:00pm 28.8 28.6 17.7 51 7.0 NNE 15 20 8 11 1012.1 1012.0 0.0
22/07:30pm 29.1 29.0 17.0 48 7.6 NNE 13 20 7 11 1011.8 1011.7 0.0
22/07:00pm 29.7 30.1 18.2 50 7.4 NNE 13 20 7 11 1011.1 1011.0 0.0
22/06:30pm 30.8 29.9 18.2 47 8.1 NNE 20 30 11 16 1010.7 1010.6 0.0
22/06:00pm 31.8 31.2 18.4 45 8.7 NNE 19 26 10 14 1010.2 1010.1 0.0
22/05:30pm 32.9 32.0 18.3 42 9.5 NNE 20 28 11 15 1009.7 1009.6 0.0
22/05:00pm 34.4 33.0 18.0 37 10.6 N 22 35 12 19 1009.1 1009.0 0.0
22/04:30pm 35.8 34.8 15.5 29 12.8 NNE 15 22 8 12 1008.8 1008.7 0.0
22/04:00pm 37.6 35.5 8.4 17 16.7 E 9 19 5 10 1008.8 1008.7 0.0
22/03:30pm 37.5 35.0 8.3 17 16.7 ESE 11 20 6 11 1009.1 1009.0 0.0
22/03:00pm 37.0 34.0 7.9 17 16.5 SE 13 24 7 13 1009.5 1009.4 0.0
22/02:30pm 37.7 35.9 9.3 18 16.5 ESE 9 28 5 15 1009.9 1009.8 0.0
22/02:00pm 37.3 34.8 9.8 19 16.0 SSE 13 24 7 13 1010.2 1010.1 0.0
22/01:30pm 36.8 35.2 10.2 20 15.6 ESE 9 28 5 15 1010.9 1010.8 0.0
22/01:00pm 36.2 33.0 11.1 22 14.8 E 19 26 10 14 1011.5 1011.4 0.0
22/12:30pm 35.5 33.6 13.1 26 13.6 SE 15 24 8 13 1012.3 1012.2 0.0
22/12:00pm 35.8 33.8 13.9 27 13.5 E 17 26 9 14 1012.9 1012.8 0.0
22/11:30am 34.3 33.2 14.2 29 12.3 ESE 13 24 7 13 1013.6 1013.5 0.0
22/11:00am 33.9 33.6 15.4 33 11.5 ESE 11 19 6 10 1014.2 1014.1 0.0
22/10:30am 32.9 33.5 16.7 38 10.3 ENE 9 20 5 11 1014.7 1014.6 0.0
22/10:00am 31.9 32.8 18.5 45 8.7 E 11 17 6 9 1015.0 1014.9 0.0
22/09:30am 31.1 32.8 19.4 49 7.7 ENE 9 19 5 10 1015.3 1015.2 0.0
22/09:00am 29.9 31.9 20.7 57 6.1 ENE 11 17 6 9 1015.4 1015.3 0.0
22/08:30am 28.8 31.5 21.3 64 5.0 NE 9 15 5 8 1015.3 1015.2 0.0
22/08:00am 27.6 31.1 21.9 71 3.8 ENE 6 9 3 5 1015.1 1015.0 0.0
22/07:30am 26.6 31.2 21.8 75 3.2 CALM 0 2 0 1 1014.9 1014.8 0.0
22/07:00am 24.6 28.8 20.9 80 2.4 CALM 0 2 0 1 1014.7 1014.6 0.0
22/06:30am 23.6 27.5 21.1 86 1.6 W 2 11 1 6 1014.3 1014.2 0.0
22/06:00am 23.4 27.5 20.7 85 1.8 CALM 0 0 0 0 1013.9 1013.8 0.0
22/05:30am 24.0 28.2 20.9 83 2.0 CALM 0 4 0 2 1013.6 1013.5 0.0
22/05:00am 24.1 28.2 20.8 82 2.2 CALM 0 2 0 1 1013.5 1013.4 0.0
22/04:30am 24.5 28.7 21.0 81 2.3 CALM 0 0 0 0 1013.2 1013.1 0.0
22/04:00am 24.2 28.2 20.5 80 2.4 CALM 0 0 0 0 1013.0 1012.9 0.0
22/03:30am 24.3 28.0 20.8 81 2.3 W 2 6 1 3 1013.0 1012.9 0.0
22/03:00am 24.8 28.4 21.3 81 2.3 N 4 7 2 4 1012.9 1012.8 0.0
22/02:30am 25.0 28.6 21.3 80 2.4 NNE 4 7 2 4 1013.1 1013.0 0.0
22/02:00am 24.6 28.2 20.5 78 2.7 N 2 4 1 2 1013.6 1013.5 0.0
22/01:30am 25.5 28.9 21.0 76 3.0 NE 4 6 2 3 1014.0 1013.9 0.0
22/01:00am 25.9 29.4 21.1 75 3.2 NE 4 7 2 4 1014.4 1014.3 0.0
22/12:30am 25.9 29.3 20.9 74 3.3 NNE 4 6 2 3 1014.6 1014.5 0.0
22/12:00am 26.3 29.3 21.3 74 3.3 ENE 7 9 4 5 1014.9 1014.8 0.0
 
Date/Time
CST
Temp
°C
App
Temp
°C
Dew
Point
Rel
Hum
%
Delta-T
°C
Wind Press
QNH
hPa
Press
MSL
hPa
Rain
since 9 am
mm
Dir
 
Spd
km/h
Gust
km/h
Spd
kts
Gust
kts
21/11:30pm 25.6 28.8 20.6 74 3.3 NE 4 6 2 3 1014.9 1014.8 0.0
21/11:00pm 26.1 29.5 20.9 73 3.4 NE 4 6 2 3 1014.8 1014.7 0.0
21/10:30pm 26.4 29.3 20.7 71 3.7 N 6 7 3 4 1014.6 1014.5 0.0
21/10:00pm 26.8 29.1 20.6 69 4.1 NNE 9 15 5 8 1014.5 1014.4 0.0
21/09:30pm 27.2 29.4 20.3 66 4.5 N 9 13 5 7 1014.1 1014.0 0.0
21/09:00pm 27.7 29.5 20.3 64 4.9 NNE 11 17 6 9 1013.6 1013.5 0.0
21/08:30pm 28.3 29.8 19.8 60 5.5 N 11 17 6 9 1013.3 1013.2 0.0
21/08:00pm 28.3 29.6 19.2 57 5.9 NNE 11 15 6 8 1012.8 1012.7 0.0
21/07:30pm 28.9 30.2 19.2 55 6.3 NNE 11 17 6 9 1012.4 1012.3 0.0
21/07:00pm 29.9 30.4 18.3 49 7.4 NNE 13 20 7 11 1012.0 1011.9 0.0
21/06:30pm 30.8 30.8 18.2 47 8.1 NNE 15 20 8 11 1011.6 1011.5 0.0
21/06:00pm 32.1 30.6 16.8 40 9.7 NNE 20 33 11 18 1011.0 1010.9 0.0
21/05:30pm 33.2 31.2 16.5 36 10.6 NNE 22 32 12 17 1010.6 1010.5 0.0
21/05:00pm 34.6 32.4 16.0 33 11.7 NNE 22 33 12 18 1010.1 1010.0 0.0
21/04:30pm 37.6 33.9 4.5 13 17.8 NE 13 20 7 11 1009.8 1009.7 0.0
21/04:00pm 38.4 34.8 5.1 13 18.2 E 13 24 7 13 1009.8 1009.7 0.0
21/03:30pm 38.0 34.6 5.9 14 17.7 E 13 20 7 11 1010.0 1009.9 0.0
21/03:00pm 37.4 34.7 5.4 14 17.5 SSE 9 20 5 11 1010.3 1010.2 0.0
21/02:30pm 37.1 33.8 6.2 15 17.0 SE 13 28 7 15 1010.7 1010.6 0.0
21/02:00pm 37.5 34.2 6.5 15 17.2 E 13 32 7 17 1011.2 1011.1 0.0
21/01:30pm 37.6 33.4 7.5 16 17.0 ESE 19 33 10 18 1012.0 1011.9 0.0
21/01:00pm 36.3 33.2 7.4 17 16.2 SE 13 32 7 17 1012.6 1012.5 0.0
21/12:30pm 36.0 33.2 7.1 17 16.1 E 11 24 6 13 1013.4 1013.3 0.0
21/12:00pm 35.1 32.4 8.8 20 14.9 SSE 13 24 7 13 1014.2 1014.1 0.0
21/11:30am 34.5 32.6 10.4 23 14.0 E 11 20 6 11 1014.8 1014.7 0.0
21/11:00am 33.5 32.3 10.2 24 13.4 SE 7 17 4 9 1015.1 1015.0 0.0
21/10:30am 32.9 30.8 9.7 24 13.2 E 11 24 6 13 1015.5 1015.4 0.0
21/10:00am 32.1 31.5 11.8 29 11.9 E 6 13 3 7 1015.9 1015.8 0.0
21/09:30am 31.4 30.2 11.7 29 11.5 ENE 9 19 5 10 1016.0 1015.9 0.0
21/09:00am 30.6 31.4 14.7 38 9.7 ENE 4 9 2 5 1015.9 1015.8 0.0
21/08:30am 28.2 30.1 17.7 53 6.6 SSW 4 7 2 4 1015.9 1015.8 0.0
21/08:00am 26.3 29.8 21.1 73 3.4 SSW 4 7 2 4 1015.6 1015.5 0.0
21/07:30am 24.6 28.7 21.5 83 2.0 SW 2 4 1 2 1015.5 1015.4 0.0
21/07:00am 20.8 23.5 18.7 88 1.3 SW 2 4 1 2 1015.0 1014.9 0.0
21/06:30am 20.2 23.0 18.0 87 1.4 CALM 0 2 0 1 1014.3 1014.2 0.0
21/06:00am 21.2 24.8 19.8 92 0.9 CALM 0 4 0 2 1014.0 1013.9 0.0
21/05:30am 20.9 24.1 18.8 88 1.3 CALM 0 0 0 0 1013.5 1013.4 0.0
21/05:00am 21.4 24.7 19.1 87 1.5 CALM 0 0 0 0 1013.3 1013.2 0.0
21/04:30am 23.3 26.7 21.0 87 1.5 N 4 7 2 4 1013.3 1013.2 0.0
21/04:00am 22.8 26.2 20.1 85 1.7 NNW 2 4 1 2 1013.4 1013.3 0.0
21/03:30am 22.2 25.2 19.2 83 1.9 NNW 2 4 1 2 1013.4 1013.3 0.0
21/03:00am 24.1 27.3 20.4 80 2.4 NNW 4 6 2 3 1013.5 1013.4 0.0
21/02:30am 24.4 28.4 20.5 79 2.5 CALM 0 2 0 1 1013.7 1013.6 0.0
21/02:00am 25.4 28.9 21.1 77 2.8 NE 4 6 2 3 1013.9 1013.8 0.0
21/01:30am 25.7 28.8 21.1 76 3.0 NNE 6 7 3 4 1014.0 1013.9 0.0
21/01:00am 26.0 29.2 21.2 75 3.2 NNE 6 7 3 4 1014.3 1014.2 0.0
21/12:30am 26.3 29.3 21.3 74 3.3 NE 7 15 4 8 1014.4 1014.3 0.0
21/12:00am 26.4 29.1 21.4 74 3.3 NE 9 15 5 8 1014.3 1014.2 0.0
 
Date/Time
CST
Temp
°C
App
Temp
°C
Dew
Point
Rel
Hum
%
Delta-T
°C
Wind Press
QNH
hPa
Press
MSL
hPa
Rain
since 9 am
mm
Dir
 
Spd
km/h
Gust
km/h
Spd
kts
Gust
kts
20/11:30pm 26.6 29.3 21.4 73 3.5 ENE 9 15 5 8 1014.4 1014.3 0.0
20/11:00pm 26.7 28.8 21.0 71 3.8 ENE 11 17 6 9 1014.4 1014.3 0.0
20/10:30pm 27.1 29.2 20.9 69 4.1 ENE 11 20 6 11 1014.3 1014.2 0.0
20/10:00pm 27.2 29.0 19.5 62 5.0 NE 9 15 5 8 1014.1 1014.0 0.0
20/09:30pm 27.1 29.1 20.0 65 4.6 NE 9 15 5 8 1013.5 1013.4 0.0
20/09:00pm 27.1 29.0 19.7 64 4.8 NNE 9 15 5 8 1013.1 1013.0 0.0
20/08:30pm 27.5 28.9 19.6 62 5.1 NNE 11 17 6 9 1012.6 1012.5 0.0
20/08:00pm 28.0 29.4 18.7 57 6.0 NNE 9 13 5 7 1012.0 1011.9 0.0
20/07:30pm 28.6 29.5 18.4 54 6.5 NNE 11 19 6 10 1011.6 1011.5 0.0
20/07:00pm 29.4 30.1 17.9 50 7.3 NNE 11 20 6 11 1011.1 1011.0 0.0
20/06:30pm 30.9 29.9 17.6 45 8.5 NNE 19 26 10 14 1010.4 1010.3 0.0
20/06:00pm 32.0 30.7 16.7 40 9.7 NNE 19 28 10 15 1010.0 1009.9 0.0
20/05:30pm 33.5 31.7 15.5 34 11.2 NNE 19 28 10 15 1009.5 1009.4 0.0
20/05:00pm 34.5 33.0 15.4 32 11.9 NNE 17 33 9 18 1009.0 1008.9 0.0
20/04:30pm 36.8 33.8 7.8 17 16.4 E 13 22 7 12 1008.9 1008.8 0.0
20/04:00pm 36.8 33.4 7.8 17 16.4 ENE 15 28 8 15 1009.0 1008.9 0.0
20/03:30pm 36.4 33.2 8.3 18 16.0 SE 15 30 8 16 1009.2 1009.1 0.0
20/03:00pm 36.5 32.9 8.4 18 16.0 E 17 26 9 14 1009.7 1009.6 0.0
20/02:30pm 36.8 32.3 6.9 16 16.6 E 20 33 11 18 1010.1 1010.0 0.0
20/02:00pm 36.6 32.2 7.6 17 16.3 ENE 20 26 11 14 1010.6 1010.5 0.0
20/01:30pm 35.8 30.9 7.0 17 16.0 E 22 33 12 18 1011.3 1011.2 0.0
20/01:10pm 36.9 30.7 6.0 15 17.0 ESE 28 46 15 25 1011.5 1011.4 0.0
20/01:00pm 37.2 32.8 7.2 16 16.8 ENE 20 24 11 13 1011.8 1011.7 0.0
20/12:30pm 35.6 30.5 5.9 16 16.2 NE 22 28 12 15 1012.6 1012.5 0.0
20/12:00pm 35.8 30.1 5.1 15 16.5 E 24 39 13 21 1013.3 1013.2 0.0
20/11:30am 35.0 30.2 2.5 13 16.7 E 17 20 9 11 1013.8 1013.7 0.0

Other Formats:

Comma delimited format used in spreadsheet applications
http://www.bom.gov.au/fwo/IDD60801/IDD60801.94110.axf

JavaScript Object Notation format (JSON) in row-major order
http://www.bom.gov.au/fwo/IDD60801/IDD60801.94110.json